sensor_id;sensor_type;location;lat;lon;timestamp;P1;durP1;ratioP1;P2;durP2;ratioP2
10283;SDS011;5187;52.378;9.018;2022-10-04T00:00:43;9.60;;;5.87;;
10283;SDS011;5187;52.378;9.018;2022-10-04T00:03:21;7.47;;;5.43;;
10283;SDS011;5187;52.378;9.018;2022-10-04T00:05:52;9.30;;;5.70;;
10283;SDS011;5187;52.378;9.018;2022-10-04T00:08:23;13.33;;;6.10;;
10283;SDS011;5187;52.378;9.018;2022-10-04T00:13:39;8.63;;;5.63;;
10283;SDS011;5187;52.378;9.018;2022-10-04T00:16:08;13.10;;;6.23;;
10283;SDS011;5187;52.378;9.018;2022-10-04T00:18:47;11.90;;;5.83;;
10283;SDS011;5187;52.378;9.018;2022-10-04T00:21:16;12.47;;;5.93;;
10283;SDS011;5187;52.378;9.018;2022-10-04T00:23:46;10.50;;;6.23;;
10283;SDS011;5187;52.378;9.018;2022-10-04T00:28:57;9.47;;;5.50;;
10283;SDS011;5187;52.378;9.018;2022-10-04T00:31:26;12.27;;;6.07;;
10283;SDS011;5187;52.378;9.018;2022-10-04T00:34:32;10.03;;;5.83;;
10283;SDS011;5187;52.378;9.018;2022-10-04T00:36:49;9.77;;;5.67;;
10283;SDS011;5187;52.378;9.018;2022-10-04T00:42:03;14.03;;;6.27;;
10283;SDS011;5187;52.378;9.018;2022-10-04T00:44:37;10.17;;;6.63;;
10283;SDS011;5187;52.378;9.018;2022-10-04T00:47:12;9.37;;;6.27;;
10283;SDS011;5187;52.378;9.018;2022-10-04T00:49:45;8.90;;;6.40;;
10283;SDS011;5187;52.378;9.018;2022-10-04T00:52:15;11.80;;;5.67;;
10283;SDS011;5187;52.378;9.018;2022-10-04T00:54:48;10.03;;;5.80;;
10283;SDS011;5187;52.378;9.018;2022-10-04T00:57:18;11.33;;;5.30;;
10283;SDS011;5187;52.378;9.018;2022-10-04T00:59:48;9.40;;;6.10;;
10283;SDS011;5187;52.378;9.018;2022-10-04T01:02:18;11.27;;;6.17;;
10283;SDS011;5187;52.378;9.018;2022-10-04T01:04:50;9.30;;;5.93;;
10283;SDS011;5187;52.378;9.018;2022-10-04T01:07:21;8.57;;;6.10;;
10283;SDS011;5187;52.378;9.018;2022-10-04T01:09:51;8.13;;;5.70;;
10283;SDS011;5187;52.378;9.018;2022-10-04T01:12:25;7.33;;;5.70;;
10283;SDS011;5187;52.378;9.018;2022-10-04T01:14:55;8.47;;;6.23;;
10283;SDS011;5187;52.378;9.018;2022-10-04T01:17:27;9.77;;;5.77;;
10283;SDS011;5187;52.378;9.018;2022-10-04T01:19:57;10.03;;;5.93;;
10283;SDS011;5187;52.378;9.018;2022-10-04T01:22:34;10.17;;;6.30;;
10283;SDS011;5187;52.378;9.018;2022-10-04T01:25:04;7.30;;;5.77;;
10283;SDS011;5187;52.378;9.018;2022-10-04T01:27:34;9.03;;;6.07;;
10283;SDS011;5187;52.378;9.018;2022-10-04T01:30:04;7.80;;;5.00;;
10283;SDS011;5187;52.378;9.018;2022-10-04T01:32:35;11.03;;;5.87;;
10283;SDS011;5187;52.378;9.018;2022-10-04T01:35:05;11.40;;;6.20;;
10283;SDS011;5187;52.378;9.018;2022-10-04T01:37:37;13.33;;;6.40;;
10283;SDS011;5187;52.378;9.018;2022-10-04T01:40:06;11.80;;;6.40;;
10283;SDS011;5187;52.378;9.018;2022-10-04T01:42:37;13.87;;;6.37;;
10283;SDS011;5187;52.378;9.018;2022-10-04T01:45:08;11.03;;;6.40;;
10283;SDS011;5187;52.378;9.018;2022-10-04T01:47:42;7.97;;;6.23;;
10283;SDS011;5187;52.378;9.018;2022-10-04T01:50:13;11.63;;;6.40;;
10283;SDS011;5187;52.378;9.018;2022-10-04T01:52:44;11.93;;;6.40;;
10283;SDS011;5187;52.378;9.018;2022-10-04T01:55:15;13.50;;;6.10;;
10283;SDS011;5187;52.378;9.018;2022-10-04T01:57:47;11.73;;;6.17;;
10283;SDS011;5187;52.378;9.018;2022-10-04T02:00:18;12.37;;;5.90;;
10283;SDS011;5187;52.378;9.018;2022-10-04T02:02:50;8.20;;;5.27;;
10283;SDS011;5187;52.378;9.018;2022-10-04T02:05:23;9.97;;;6.40;;
10283;SDS011;5187;52.378;9.018;2022-10-04T02:07:59;8.67;;;5.97;;
10283;SDS011;5187;52.378;9.018;2022-10-04T02:10:29;8.70;;;5.83;;
10283;SDS011;5187;52.378;9.018;2022-10-04T02:13:07;6.33;;;5.60;;
10283;SDS011;5187;52.378;9.018;2022-10-04T02:15:37;9.07;;;5.80;;
10283;SDS011;5187;52.378;9.018;2022-10-04T02:18:08;9.87;;;5.70;;
10283;SDS011;5187;52.378;9.018;2022-10-04T02:20:38;8.77;;;5.60;;
10283;SDS011;5187;52.378;9.018;2022-10-04T02:23:09;7.13;;;5.53;;
10283;SDS011;5187;52.378;9.018;2022-10-04T02:25:38;9.30;;;5.73;;
10283;SDS011;5187;52.378;9.018;2022-10-04T02:28:08;9.23;;;5.63;;
10283;SDS011;5187;52.378;9.018;2022-10-04T02:30:37;9.40;;;5.63;;
10283;SDS011;5187;52.378;9.018;2022-10-04T02:33:07;11.00;;;6.43;;
10283;SDS011;5187;52.378;9.018;2022-10-04T02:35:36;9.47;;;6.20;;
10283;SDS011;5187;52.378;9.018;2022-10-04T02:38:07;8.93;;;6.30;;
10283;SDS011;5187;52.378;9.018;2022-10-04T02:40:39;13.07;;;6.80;;
10283;SDS011;5187;52.378;9.018;2022-10-04T02:43:11;8.47;;;6.20;;
10283;SDS011;5187;52.378;9.018;2022-10-04T02:45:45;9.30;;;6.17;;
10283;SDS011;5187;52.378;9.018;2022-10-04T02:51:04;16.23;;;7.03;;
10283;SDS011;5187;52.378;9.018;2022-10-04T02:53:35;11.40;;;6.13;;
10283;SDS011;5187;52.378;9.018;2022-10-04T02:56:10;9.73;;;6.23;;
10283;SDS011;5187;52.378;9.018;2022-10-04T02:58:39;7.73;;;5.97;;
10283;SDS011;5187;52.378;9.018;2022-10-04T03:01:13;14.73;;;6.50;;
10283;SDS011;5187;52.378;9.018;2022-10-04T03:03:43;11.77;;;6.60;;
10283;SDS011;5187;52.378;9.018;2022-10-04T03:06:14;16.67;;;6.53;;
10283;SDS011;5187;52.378;9.018;2022-10-04T03:08:45;13.60;;;6.90;;
10283;SDS011;5187;52.378;9.018;2022-10-04T03:11:17;10.97;;;6.97;;
10283;SDS011;5187;52.378;9.018;2022-10-04T03:13:48;14.27;;;7.10;;
10283;SDS011;5187;52.378;9.018;2022-10-04T03:16:17;13.00;;;7.03;;
10283;SDS011;5187;52.378;9.018;2022-10-04T03:18:47;13.53;;;6.47;;
10283;SDS011;5187;52.378;9.018;2022-10-04T03:21:17;8.73;;;6.30;;
10283;SDS011;5187;52.378;9.018;2022-10-04T03:23:46;11.67;;;7.03;;
10283;SDS011;5187;52.378;9.018;2022-10-04T03:26:20;10.80;;;6.90;;
10283;SDS011;5187;52.378;9.018;2022-10-04T03:28:51;13.87;;;7.10;;
10283;SDS011;5187;52.378;9.018;2022-10-04T03:31:20;9.00;;;6.57;;
10283;SDS011;5187;52.378;9.018;2022-10-04T03:33:49;13.53;;;7.07;;
10283;SDS011;5187;52.378;9.018;2022-10-04T03:36:18;9.23;;;6.30;;
10283;SDS011;5187;52.378;9.018;2022-10-04T03:38:46;13.63;;;6.80;;
10283;SDS011;5187;52.378;9.018;2022-10-04T03:41:16;11.93;;;6.57;;
10283;SDS011;5187;52.378;9.018;2022-10-04T03:43:46;12.20;;;6.67;;
10283;SDS011;5187;52.378;9.018;2022-10-04T03:46:16;15.60;;;6.63;;
10283;SDS011;5187;52.378;9.018;2022-10-04T03:48:45;10.43;;;6.53;;
10283;SDS011;5187;52.378;9.018;2022-10-04T03:51:18;11.57;;;7.00;;
10283;SDS011;5187;52.378;9.018;2022-10-04T03:53:48;12.07;;;6.97;;
10283;SDS011;5187;52.378;9.018;2022-10-04T03:56:18;10.97;;;6.23;;
10283;SDS011;5187;52.378;9.018;2022-10-04T03:58:49;12.23;;;6.50;;
10283;SDS011;5187;52.378;9.018;2022-10-04T04:04:05;10.20;;;7.13;;
10283;SDS011;5187;52.378;9.018;2022-10-04T04:06:39;11.57;;;6.83;;
10283;SDS011;5187;52.378;9.018;2022-10-04T04:09:13;13.43;;;7.37;;
10283;SDS011;5187;52.378;9.018;2022-10-04T04:11:45;14.23;;;7.40;;
10283;SDS011;5187;52.378;9.018;2022-10-04T04:14:19;13.33;;;6.80;;
10283;SDS011;5187;52.378;9.018;2022-10-04T04:16:48;10.80;;;6.60;;
10283;SDS011;5187;52.378;9.018;2022-10-04T04:19:18;12.50;;;6.03;;
10283;SDS011;5187;52.378;9.018;2022-10-04T04:21:48;10.83;;;6.20;;
10283;SDS011;5187;52.378;9.018;2022-10-04T04:24:18;12.87;;;6.40;;
10283;SDS011;5187;52.378;9.018;2022-10-04T04:26:52;10.13;;;6.53;;
10283;SDS011;5187;52.378;9.018;2022-10-04T04:29:23;14.67;;;6.37;;
10283;SDS011;5187;52.378;9.018;2022-10-04T04:31:53;10.97;;;6.37;;
10283;SDS011;5187;52.378;9.018;2022-10-04T04:34:24;11.43;;;5.93;;
10283;SDS011;5187;52.378;9.018;2022-10-04T04:36:56;12.40;;;6.60;;
10283;SDS011;5187;52.378;9.018;2022-10-04T04:39:25;12.13;;;6.40;;
10283;SDS011;5187;52.378;9.018;2022-10-04T04:42:11;9.63;;;6.00;;
10283;SDS011;5187;52.378;9.018;2022-10-04T04:44:46;13.57;;;6.23;;
10283;SDS011;5187;52.378;9.018;2022-10-04T04:47:20;12.73;;;5.90;;
10283;SDS011;5187;52.378;9.018;2022-10-04T04:49:52;12.83;;;5.67;;
10283;SDS011;5187;52.378;9.018;2022-10-04T04:52:23;12.27;;;5.93;;
10283;SDS011;5187;52.378;9.018;2022-10-04T04:54:52;9.93;;;6.33;;
10283;SDS011;5187;52.378;9.018;2022-10-04T04:57:22;10.57;;;5.87;;
10283;SDS011;5187;52.378;9.018;2022-10-04T04:59:53;8.33;;;6.03;;
10283;SDS011;5187;52.378;9.018;2022-10-04T05:02:25;8.17;;;5.33;;
10283;SDS011;5187;52.378;9.018;2022-10-04T05:05:09;12.10;;;5.67;;
10283;SDS011;5187;52.378;9.018;2022-10-04T05:07:37;9.00;;;5.90;;
10283;SDS011;5187;52.378;9.018;2022-10-04T05:10:19;10.27;;;6.37;;
10283;SDS011;5187;52.378;9.018;2022-10-04T05:12:47;14.17;;;6.10;;
10283;SDS011;5187;52.378;9.018;2022-10-04T05:15:18;11.67;;;6.87;;
10283;SDS011;5187;52.378;9.018;2022-10-04T05:17:47;13.23;;;6.90;;
10283;SDS011;5187;52.378;9.018;2022-10-04T05:20:16;11.40;;;6.00;;
10283;SDS011;5187;52.378;9.018;2022-10-04T05:22:45;11.77;;;7.03;;
10283;SDS011;5187;52.378;9.018;2022-10-04T05:25:17;13.60;;;7.20;;
10283;SDS011;5187;52.378;9.018;2022-10-04T05:27:50;16.97;;;6.90;;
10283;SDS011;5187;52.378;9.018;2022-10-04T05:30:26;10.20;;;6.30;;
10283;SDS011;5187;52.378;9.018;2022-10-04T05:32:57;8.90;;;6.97;;
10283;SDS011;5187;52.378;9.018;2022-10-04T05:35:27;10.73;;;7.83;;
10283;SDS011;5187;52.378;9.018;2022-10-04T05:37:58;15.63;;;8.33;;
10283;SDS011;5187;52.378;9.018;2022-10-04T05:40:31;14.13;;;8.10;;
10283;SDS011;5187;52.378;9.018;2022-10-04T05:43:01;13.10;;;8.63;;
10283;SDS011;5187;52.378;9.018;2022-10-04T05:45:31;10.50;;;7.90;;
10283;SDS011;5187;52.378;9.018;2022-10-04T05:48:00;12.17;;;6.87;;
10283;SDS011;5187;52.378;9.018;2022-10-04T05:50:30;8.83;;;6.27;;
10283;SDS011;5187;52.378;9.018;2022-10-04T05:53:10;8.97;;;6.83;;
10283;SDS011;5187;52.378;9.018;2022-10-04T05:55:42;8.27;;;6.50;;
10283;SDS011;5187;52.378;9.018;2022-10-04T05:58:17;11.77;;;6.07;;
10283;SDS011;5187;52.378;9.018;2022-10-04T06:01:08;8.67;;;5.97;;
10283;SDS011;5187;52.378;9.018;2022-10-04T06:06:28;10.73;;;6.87;;
10283;SDS011;5187;52.378;9.018;2022-10-04T06:09:01;10.27;;;6.70;;
10283;SDS011;5187;52.378;9.018;2022-10-04T06:11:35;13.50;;;7.23;;
10283;SDS011;5187;52.378;9.018;2022-10-04T06:17:00;13.20;;;6.83;;
10283;SDS011;5187;52.378;9.018;2022-10-04T06:19:39;11.07;;;6.53;;
10283;SDS011;5187;52.378;9.018;2022-10-04T06:22:14;11.40;;;6.63;;
10283;SDS011;5187;52.378;9.018;2022-10-04T06:24:43;13.03;;;6.47;;
10283;SDS011;5187;52.378;9.018;2022-10-04T06:27:14;12.67;;;6.83;;
10283;SDS011;5187;52.378;9.018;2022-10-04T06:29:45;12.73;;;6.60;;
10283;SDS011;5187;52.378;9.018;2022-10-04T06:37:54;11.43;;;5.90;;
10283;SDS011;5187;52.378;9.018;2022-10-04T06:43:17;10.13;;;6.40;;
10283;SDS011;5187;52.378;9.018;2022-10-04T06:45:53;7.33;;;6.00;;
10283;SDS011;5187;52.378;9.018;2022-10-04T06:48:34;10.40;;;5.90;;
10283;SDS011;5187;52.378;9.018;2022-10-04T06:51:07;12.07;;;5.67;;
10283;SDS011;5187;52.378;9.018;2022-10-04T06:53:45;13.83;;;5.93;;
10283;SDS011;5187;52.378;9.018;2022-10-04T06:56:24;10.73;;;5.17;;
10283;SDS011;5187;52.378;9.018;2022-10-04T06:59:08;9.23;;;5.43;;
10283;SDS011;5187;52.378;9.018;2022-10-04T07:01:45;12.63;;;5.60;;
10283;SDS011;5187;52.378;9.018;2022-10-04T07:04:20;8.53;;;5.33;;
10283;SDS011;5187;52.378;9.018;2022-10-04T07:06:53;9.07;;;5.13;;
10283;SDS011;5187;52.378;9.018;2022-10-04T07:09:44;11.03;;;5.20;;
10283;SDS011;5187;52.378;9.018;2022-10-04T07:12:13;6.90;;;4.47;;
10283;SDS011;5187;52.378;9.018;2022-10-04T07:14:44;10.30;;;5.17;;
10283;SDS011;5187;52.378;9.018;2022-10-04T07:17:16;9.00;;;4.80;;
10283;SDS011;5187;52.378;9.018;2022-10-04T07:19:47;7.70;;;4.63;;
10283;SDS011;5187;52.378;9.018;2022-10-04T07:22:18;8.60;;;4.70;;
10283;SDS011;5187;52.378;9.018;2022-10-04T07:24:58;8.73;;;5.03;;
10283;SDS011;5187;52.378;9.018;2022-10-04T07:27:31;8.73;;;4.53;;
10283;SDS011;5187;52.378;9.018;2022-10-04T07:30:02;6.17;;;4.70;;
10283;SDS011;5187;52.378;9.018;2022-10-04T07:32:31;7.83;;;4.80;;
10283;SDS011;5187;52.378;9.018;2022-10-04T07:35:03;12.40;;;5.23;;
10283;SDS011;5187;52.378;9.018;2022-10-04T07:37:33;9.13;;;5.00;;
10283;SDS011;5187;52.378;9.018;2022-10-04T07:40:05;10.00;;;4.87;;
10283;SDS011;5187;52.378;9.018;2022-10-04T07:42:36;9.20;;;4.57;;
10283;SDS011;5187;52.378;9.018;2022-10-04T07:45:11;8.27;;;4.50;;
10283;SDS011;5187;52.378;9.018;2022-10-04T07:47:41;9.97;;;4.90;;
10283;SDS011;5187;52.378;9.018;2022-10-04T07:52:57;9.83;;;5.03;;
10283;SDS011;5187;52.378;9.018;2022-10-04T07:55:41;11.27;;;5.23;;
10283;SDS011;5187;52.378;9.018;2022-10-04T07:58:21;7.63;;;4.77;;
10283;SDS011;5187;52.378;9.018;2022-10-04T08:00:53;10.50;;;5.10;;
10283;SDS011;5187;52.378;9.018;2022-10-04T08:06:17;9.20;;;5.10;;
10283;SDS011;5187;52.378;9.018;2022-10-04T08:09:02;9.63;;;5.00;;
10283;SDS011;5187;52.378;9.018;2022-10-04T08:11:42;10.87;;;5.37;;
10283;SDS011;5187;52.378;9.018;2022-10-04T08:14:22;8.47;;;5.50;;
10283;SDS011;5187;52.378;9.018;2022-10-04T08:16:57;7.00;;;5.27;;
10283;SDS011;5187;52.378;9.018;2022-10-04T08:19:32;10.70;;;5.40;;
10283;SDS011;5187;52.378;9.018;2022-10-04T08:22:04;8.10;;;6.00;;
10283;SDS011;5187;52.378;9.018;2022-10-04T08:24:41;10.03;;;5.97;;
10283;SDS011;5187;52.378;9.018;2022-10-04T08:27:22;10.50;;;5.67;;
10283;SDS011;5187;52.378;9.018;2022-10-04T08:30:04;7.40;;;5.03;;
10283;SDS011;5187;52.378;9.018;2022-10-04T08:32:50;9.60;;;5.47;;
10283;SDS011;5187;52.378;9.018;2022-10-04T08:35:31;8.97;;;5.60;;
10283;SDS011;5187;52.378;9.018;2022-10-04T08:38:11;6.87;;;5.03;;
10283;SDS011;5187;52.378;9.018;2022-10-04T08:43:52;5.73;;;4.87;;
10283;SDS011;5187;52.378;9.018;2022-10-04T08:52:08;9.73;;;4.70;;
10283;SDS011;5187;52.378;9.018;2022-10-04T08:54:42;9.60;;;4.50;;
10283;SDS011;5187;52.378;9.018;2022-10-04T08:57:22;9.07;;;4.83;;
10283;SDS011;5187;52.378;9.018;2022-10-04T09:00:06;7.33;;;4.93;;
10283;SDS011;5187;52.378;9.018;2022-10-04T09:02:58;10.23;;;5.17;;
10283;SDS011;5187;52.378;9.018;2022-10-04T09:05:50;9.47;;;4.53;;
10283;SDS011;5187;52.378;9.018;2022-10-04T09:08:26;8.80;;;4.63;;
10283;SDS011;5187;52.378;9.018;2022-10-04T09:11:09;7.27;;;4.77;;
10283;SDS011;5187;52.378;9.018;2022-10-04T09:13:45;8.87;;;4.90;;
10283;SDS011;5187;52.378;9.018;2022-10-04T09:16:23;8.13;;;4.47;;
10283;SDS011;5187;52.378;9.018;2022-10-04T09:21:48;6.83;;;4.20;;
10283;SDS011;5187;52.378;9.018;2022-10-04T09:24:26;7.50;;;4.80;;
10283;SDS011;5187;52.378;9.018;2022-10-04T09:27:03;6.87;;;4.60;;
10283;SDS011;5187;52.378;9.018;2022-10-04T09:30:11;8.63;;;4.37;;
10283;SDS011;5187;52.378;9.018;2022-10-04T09:41:39;6.23;;;4.43;;
10283;SDS011;5187;52.378;9.018;2022-10-04T09:44:23;7.70;;;3.80;;
10283;SDS011;5187;52.378;9.018;2022-10-04T09:47:02;13.27;;;4.30;;
10283;SDS011;5187;52.378;9.018;2022-10-04T09:49:43;6.10;;;3.60;;
10283;SDS011;5187;52.378;9.018;2022-10-04T09:52:19;7.72;;;3.85;;
10283;SDS011;5187;52.378;9.018;2022-10-04T09:54:56;7.68;;;3.60;;
10283;SDS011;5187;52.378;9.018;2022-10-04T09:57:35;6.03;;;3.22;;
10283;SDS011;5187;52.378;9.018;2022-10-04T10:00:11;6.75;;;3.20;;
10283;SDS011;5187;52.378;9.018;2022-10-04T10:03:01;9.02;;;3.47;;
10283;SDS011;5187;52.378;9.018;2022-10-04T10:05:47;7.18;;;3.70;;
10283;SDS011;5187;52.378;9.018;2022-10-04T10:08:17;7.15;;;3.70;;
10283;SDS011;5187;52.378;9.018;2022-10-04T10:10:55;5.78;;;3.38;;
10283;SDS011;5187;52.378;9.018;2022-10-04T10:16:50;6.13;;;3.28;;
10283;SDS011;5187;52.378;9.018;2022-10-04T10:19:27;5.75;;;3.55;;
10283;SDS011;5187;52.378;9.018;2022-10-04T10:22:07;5.88;;;3.22;;
10283;SDS011;5187;52.378;9.018;2022-10-04T10:24:51;4.65;;;3.20;;
10283;SDS011;5187;52.378;9.018;2022-10-04T10:27:31;7.13;;;3.97;;
10283;SDS011;5187;52.378;9.018;2022-10-04T10:30:12;7.20;;;3.53;;
10283;SDS011;5187;52.378;9.018;2022-10-04T10:32:52;7.18;;;3.10;;
10283;SDS011;5187;52.378;9.018;2022-10-04T10:35:36;8.65;;;3.10;;
10283;SDS011;5187;52.378;9.018;2022-10-04T10:38:20;5.95;;;3.17;;
10283;SDS011;5187;52.378;9.018;2022-10-04T10:40:54;7.40;;;3.38;;
10283;SDS011;5187;52.378;9.018;2022-10-04T10:43:41;6.82;;;2.92;;
10283;SDS011;5187;52.378;9.018;2022-10-04T10:49:16;5.95;;;3.22;;
10283;SDS011;5187;52.378;9.018;2022-10-04T10:54:52;6.97;;;3.13;;
10283;SDS011;5187;52.378;9.018;2022-10-04T10:57:31;6.20;;;2.97;;
10283;SDS011;5187;52.378;9.018;2022-10-04T11:08:40;4.22;;;2.20;;
10283;SDS011;5187;52.378;9.018;2022-10-04T11:11:17;3.95;;;2.45;;
10283;SDS011;5187;52.378;9.018;2022-10-04T11:13:56;4.55;;;2.47;;
10283;SDS011;5187;52.378;9.018;2022-10-04T11:19:23;7.22;;;2.85;;
10283;SDS011;5187;52.378;9.018;2022-10-04T11:22:09;6.20;;;2.47;;
10283;SDS011;5187;52.378;9.018;2022-10-04T11:24:53;4.88;;;2.20;;
10283;SDS011;5187;52.378;9.018;2022-10-04T11:27:38;3.75;;;2.10;;
10283;SDS011;5187;52.378;9.018;2022-10-04T11:30:16;5.25;;;2.20;;
10283;SDS011;5187;52.378;9.018;2022-10-04T11:35:57;4.13;;;2.30;;
10283;SDS011;5187;52.378;9.018;2022-10-04T11:38:32;3.20;;;2.05;;
10283;SDS011;5187;52.378;9.018;2022-10-04T11:41:16;5.07;;;2.42;;
10283;SDS011;5187;52.378;9.018;2022-10-04T11:46:34;7.47;;;2.40;;
10283;SDS011;5187;52.378;9.018;2022-10-04T11:49:08;5.55;;;2.33;;
10283;SDS011;5187;52.378;9.018;2022-10-04T11:54:43;5.45;;;2.40;;
10283;SDS011;5187;52.378;9.018;2022-10-04T11:57:22;6.60;;;2.40;;
10283;SDS011;5187;52.378;9.018;2022-10-04T11:59:55;6.50;;;2.70;;
10283;SDS011;5187;52.378;9.018;2022-10-04T12:05:26;4.70;;;2.17;;
10283;SDS011;5187;52.378;9.018;2022-10-04T12:08:00;5.13;;;2.58;;
10283;SDS011;5187;52.378;9.018;2022-10-04T12:10:33;3.65;;;2.10;;
10283;SDS011;5187;52.378;9.018;2022-10-04T12:13:25;5.32;;;2.40;;
10283;SDS011;5187;52.378;9.018;2022-10-04T12:16:04;5.03;;;2.13;;
10283;SDS011;5187;52.378;9.018;2022-10-04T12:18:50;3.65;;;2.10;;
10283;SDS011;5187;52.378;9.018;2022-10-04T12:24:20;5.65;;;2.17;;
10283;SDS011;5187;52.378;9.018;2022-10-04T12:27:14;3.80;;;1.92;;
10283;SDS011;5187;52.378;9.018;2022-10-04T12:32:37;4.88;;;2.20;;
10283;SDS011;5187;52.378;9.018;2022-10-04T12:35:08;5.40;;;2.22;;
10283;SDS011;5187;52.378;9.018;2022-10-04T12:37:48;3.72;;;2.25;;
10283;SDS011;5187;52.378;9.018;2022-10-04T12:40:23;4.20;;;2.10;;
10283;SDS011;5187;52.378;9.018;2022-10-04T12:42:57;4.97;;;2.30;;
10283;SDS011;5187;52.378;9.018;2022-10-04T12:45:37;7.72;;;2.40;;
10283;SDS011;5187;52.378;9.018;2022-10-04T12:48:17;4.75;;;2.33;;
10283;SDS011;5187;52.378;9.018;2022-10-04T12:50:56;5.68;;;2.50;;
10283;SDS011;5187;52.378;9.018;2022-10-04T12:53:32;4.93;;;2.05;;
10283;SDS011;5187;52.378;9.018;2022-10-04T12:56:06;4.53;;;2.00;;
10283;SDS011;5187;52.378;9.018;2022-10-04T12:58:44;4.45;;;2.33;;
10283;SDS011;5187;52.378;9.018;2022-10-04T13:01:16;5.53;;;2.30;;
10283;SDS011;5187;52.378;9.018;2022-10-04T13:09:28;3.08;;;1.90;;
10283;SDS011;5187;52.378;9.018;2022-10-04T13:12:02;6.75;;;2.38;;
10283;SDS011;5187;52.378;9.018;2022-10-04T13:14:39;4.35;;;2.33;;
10283;SDS011;5187;52.378;9.018;2022-10-04T13:17:12;4.40;;;2.38;;
10283;SDS011;5187;52.378;9.018;2022-10-04T13:20:10;5.60;;;2.30;;
10283;SDS011;5187;52.378;9.018;2022-10-04T13:22:46;5.53;;;2.22;;
10283;SDS011;5187;52.378;9.018;2022-10-04T13:25:25;4.38;;;2.08;;
10283;SDS011;5187;52.378;9.018;2022-10-04T13:27:58;4.28;;;2.30;;
10283;SDS011;5187;52.378;9.018;2022-10-04T13:30:31;4.53;;;1.92;;
10283;SDS011;5187;52.378;9.018;2022-10-04T13:33:04;4.95;;;2.30;;
10283;SDS011;5187;52.378;9.018;2022-10-04T13:35:36;4.78;;;2.33;;
10283;SDS011;5187;52.378;9.018;2022-10-04T13:41:02;3.55;;;2.15;;
10283;SDS011;5187;52.378;9.018;2022-10-04T13:46:30;5.68;;;2.00;;
10283;SDS011;5187;52.378;9.018;2022-10-04T13:49:27;5.20;;;1.90;;
10283;SDS011;5187;52.378;9.018;2022-10-04T13:51:59;2.95;;;1.80;;
10283;SDS011;5187;52.378;9.018;2022-10-04T13:54:51;5.55;;;2.15;;
10283;SDS011;5187;52.378;9.018;2022-10-04T13:57:45;3.95;;;1.88;;
10283;SDS011;5187;52.378;9.018;2022-10-04T14:00:17;4.35;;;2.20;;
10283;SDS011;5187;52.378;9.018;2022-10-04T14:11:20;5.10;;;2.00;;
10283;SDS011;5187;52.378;9.018;2022-10-04T14:14:18;4.00;;;1.98;;
10283;SDS011;5187;52.378;9.018;2022-10-04T14:17:08;3.75;;;2.00;;
10283;SDS011;5187;52.378;9.018;2022-10-04T14:19:47;3.15;;;1.77;;
10283;SDS011;5187;52.378;9.018;2022-10-04T14:22:34;3.35;;;1.77;;
10283;SDS011;5187;52.378;9.018;2022-10-04T14:28:24;4.95;;;1.75;;
10283;SDS011;5187;52.378;9.018;2022-10-04T14:31:17;2.63;;;1.75;;
10283;SDS011;5187;52.378;9.018;2022-10-04T14:34:55;2.75;;;1.90;;
10283;SDS011;5187;52.378;9.018;2022-10-04T14:37:47;3.10;;;2.00;;
10283;SDS011;5187;52.378;9.018;2022-10-04T14:43:17;2.97;;;1.88;;
10283;SDS011;5187;52.378;9.018;2022-10-04T14:46:00;4.07;;;1.95;;
10283;SDS011;5187;52.378;9.018;2022-10-04T14:48:56;3.40;;;1.95;;
10283;SDS011;5187;52.378;9.018;2022-10-04T14:51:36;4.45;;;1.90;;
10283;SDS011;5187;52.378;9.018;2022-10-04T14:54:09;4.50;;;2.05;;
10283;SDS011;5187;52.378;9.018;2022-10-04T14:56:41;3.97;;;2.10;;
10283;SDS011;5187;52.378;9.018;2022-10-04T14:59:21;4.57;;;2.10;;
10283;SDS011;5187;52.378;9.018;2022-10-04T15:05:10;5.95;;;2.10;;
10283;SDS011;5187;52.378;9.018;2022-10-04T15:07:48;4.93;;;2.00;;
10283;SDS011;5187;52.378;9.018;2022-10-04T15:10:19;2.65;;;2.33;;
10283;SDS011;5187;52.378;9.018;2022-10-04T15:12:54;4.93;;;2.20;;
10283;SDS011;5187;52.378;9.018;2022-10-04T15:15:43;3.92;;;2.13;;
10283;SDS011;5187;52.378;9.018;2022-10-04T15:18:23;5.55;;;2.25;;
10283;SDS011;5187;52.378;9.018;2022-10-04T15:20:55;2.78;;;2.25;;
10283;SDS011;5187;52.378;9.018;2022-10-04T15:23:31;4.68;;;2.15;;
10283;SDS011;5187;52.378;9.018;2022-10-04T15:26:04;3.75;;;2.08;;
10283;SDS011;5187;52.378;9.018;2022-10-04T15:28:42;5.43;;;2.55;;
10283;SDS011;5187;52.378;9.018;2022-10-04T15:31:15;3.30;;;2.10;;
10283;SDS011;5187;52.378;9.018;2022-10-04T15:33:53;3.53;;;2.22;;
10283;SDS011;5187;52.378;9.018;2022-10-04T15:36:26;3.17;;;2.15;;
10283;SDS011;5187;52.378;9.018;2022-10-04T15:39:01;4.22;;;2.20;;
10283;SDS011;5187;52.378;9.018;2022-10-04T15:41:33;3.70;;;2.50;;
10283;SDS011;5187;52.378;9.018;2022-10-04T15:44:13;4.65;;;2.50;;
10283;SDS011;5187;52.378;9.018;2022-10-04T15:46:46;4.70;;;2.40;;
10283;SDS011;5187;52.378;9.018;2022-10-04T15:49:27;5.25;;;2.35;;
10283;SDS011;5187;52.378;9.018;2022-10-04T15:52:09;3.63;;;2.42;;
10283;SDS011;5187;52.378;9.018;2022-10-04T15:54:54;3.53;;;2.10;;
10283;SDS011;5187;52.378;9.018;2022-10-04T15:57:31;3.42;;;2.20;;
10283;SDS011;5187;52.378;9.018;2022-10-04T16:00:05;3.15;;;2.15;;
10283;SDS011;5187;52.378;9.018;2022-10-04T16:02:57;4.50;;;2.17;;
10283;SDS011;5187;52.378;9.018;2022-10-04T16:05:34;8.23;;;2.40;;
10283;SDS011;5187;52.378;9.018;2022-10-04T16:08:12;6.03;;;2.47;;
10283;SDS011;5187;52.378;9.018;2022-10-04T16:10:51;3.10;;;2.20;;
10283;SDS011;5187;52.378;9.018;2022-10-04T16:13:30;4.30;;;2.72;;
10283;SDS011;5187;52.378;9.018;2022-10-04T16:19:07;4.50;;;2.47;;
10283;SDS011;5187;52.378;9.018;2022-10-04T16:21:43;4.07;;;2.40;;
10283;SDS011;5187;52.378;9.018;2022-10-04T16:27:11;4.20;;;2.35;;
10283;SDS011;5187;52.378;9.018;2022-10-04T16:29:44;5.30;;;2.08;;
10283;SDS011;5187;52.378;9.018;2022-10-04T16:32:38;3.30;;;1.98;;
10283;SDS011;5187;52.378;9.018;2022-10-04T16:35:14;4.22;;;2.33;;
10283;SDS011;5187;52.378;9.018;2022-10-04T16:37:52;4.55;;;2.20;;
10283;SDS011;5187;52.378;9.018;2022-10-04T16:40:29;4.60;;;2.58;;
10283;SDS011;5187;52.378;9.018;2022-10-04T16:43:01;5.13;;;2.60;;
10283;SDS011;5187;52.378;9.018;2022-10-04T16:45:40;3.92;;;2.80;;
10283;SDS011;5187;52.378;9.018;2022-10-04T16:48:26;4.32;;;2.72;;
10283;SDS011;5187;52.378;9.018;2022-10-04T16:53:46;3.47;;;2.80;;
10283;SDS011;5187;52.378;9.018;2022-10-04T16:56:16;5.28;;;2.90;;
10283;SDS011;5187;52.378;9.018;2022-10-04T16:58:51;5.47;;;3.00;;
10283;SDS011;5187;52.378;9.018;2022-10-04T17:07:12;7.40;;;4.80;;
10283;SDS011;5187;52.378;9.018;2022-10-04T17:09:45;7.90;;;4.70;;
10283;SDS011;5187;52.378;9.018;2022-10-04T17:12:16;5.73;;;4.30;;
10283;SDS011;5187;52.378;9.018;2022-10-04T17:17:37;7.33;;;4.90;;
10283;SDS011;5187;52.378;9.018;2022-10-04T17:20:11;12.20;;;4.93;;
10283;SDS011;5187;52.378;9.018;2022-10-04T17:22:44;6.40;;;4.90;;
10283;SDS011;5187;52.378;9.018;2022-10-04T17:25:21;8.40;;;4.93;;
10283;SDS011;5187;52.378;9.018;2022-10-04T17:27:55;6.97;;;4.23;;
10283;SDS011;5187;52.378;9.018;2022-10-04T17:30:26;5.73;;;4.47;;
10283;SDS011;5187;52.378;9.018;2022-10-04T17:33:04;6.80;;;4.03;;
10283;SDS011;5187;52.378;9.018;2022-10-04T17:38:24;8.13;;;4.47;;
10283;SDS011;5187;52.378;9.018;2022-10-04T17:40:57;4.80;;;3.93;;
10283;SDS011;5187;52.378;9.018;2022-10-04T17:43:28;6.23;;;4.10;;
10283;SDS011;5187;52.378;9.018;2022-10-04T17:46:06;5.83;;;4.30;;
10283;SDS011;5187;52.378;9.018;2022-10-04T17:48:40;3.97;;;3.57;;
10283;SDS011;5187;52.378;9.018;2022-10-04T17:51:37;6.53;;;3.63;;
10283;SDS011;5187;52.378;9.018;2022-10-04T17:54:25;4.83;;;3.83;;
10283;SDS011;5187;52.378;9.018;2022-10-04T17:57:14;5.63;;;4.10;;
10283;SDS011;5187;52.378;9.018;2022-10-04T17:59:49;6.17;;;3.83;;
10283;SDS011;5187;52.378;9.018;2022-10-04T18:02:21;6.17;;;3.90;;
10283;SDS011;5187;52.378;9.018;2022-10-04T18:04:53;5.97;;;4.10;;
10283;SDS011;5187;52.378;9.018;2022-10-04T18:07:26;7.90;;;4.13;;
10283;SDS011;5187;52.378;9.018;2022-10-04T18:09:57;5.17;;;4.13;;